Time;durP1;ratioP1;P1;durP2;ratioP2;P2;SDS_P1;SDS_P2;PMS_P1;PMS_P2;Temp;Humidity;BMP_temperature;BMP_pressure;BME280_temperature;BME280_humidity;BME280_pressure;Samples;Min_cycle;Max_cycle;Signal;HPM_P1;HPM_P2
2022/02/10 00:07:04;;;;;;;8.77;4.07;;;3.90;1.00;;;;;;4968864;28;20505;-76
2022/02/10 00:21:04;;;;;;;8.88;4.38;;;3.80;1.00;;;;;;5049123;28;20385;-77
2022/02/10 00:34:45;;;;;;;3.92;3.13;;;3.70;1.00;;;;;;5041011;28;20604;-77
2022/02/10 00:37:14;;;;;;;7.63;4.40;;;3.60;1.00;;;;;;5041069;28;20168;-77
2022/02/10 00:40:14;;;;;;;7.03;4.68;;;3.60;1.00;;;;;;5042304;28;20231;-77
2022/02/10 00:42:32;;;;;;;6.30;4.60;;;;;;;;;;5045999;28;20176;-77
2022/02/10 00:44:58;;;;;;;29.00;4.85;;;3.60;1.00;;;;;;5046438;28;20195;-77
2022/02/10 00:47:27;;;;;;;9.23;5.63;;;3.60;1.00;;;;;;5048037;28;20191;-77
2022/02/10 00:50:04;;;;;;;8.00;4.85;;;3.60;1.00;;;;;;5042919;28;20852;-75
2022/02/10 00:52:29;;;;;;;9.43;5.13;;;3.60;1.00;;;;;;5053595;28;20554;-75
2022/02/10 00:54:55;;;;;;;12.07;5.17;;;3.60;1.00;;;;;;5047641;28;20197;-75
2022/02/10 00:57:22;;;;;;;6.03;4.60;;;3.50;1.00;;;;;;5049686;28;20217;-75
2022/02/10 01:07:01;;;;;;;7.68;4.68;;;3.50;1.00;;;;;;5042508;28;20266;-76
2022/02/10 01:30:51;;;;;;;12.52;5.43;;;3.00;1.00;;;;;;4996052;28;20256;-77
2022/02/10 01:33:26;;;;;;;5.47;4.60;;;3.00;1.00;;;;;;4995900;28;20185;-78
2022/02/10 01:35:52;;;;;;;8.18;5.68;;;3.00;1.00;;;;;;4995205;28;20176;-76
2022/02/10 01:38:18;;;;;;;7.00;5.00;;;3.00;1.00;;;;;;4996065;28;20209;-75
2022/02/10 02:03:44;;;;;;;10.25;6.30;;;2.80;1.00;;;;;;4987832;28;20278;-76
2022/02/10 02:06:22;;;;;;;8.57;5.85;;;2.80;1.00;;;;;;4984339;28;20186;-75
2022/02/10 02:09:03;;;;;;;13.10;6.75;;;2.80;1.00;;;;;;5003346;28;20180;-75
2022/02/10 02:11:46;;;;;;;8.77;6.03;;;2.80;1.00;;;;;;4990688;28;20656;-76
2022/02/10 02:14:15;;;;;;;11.20;6.05;;;2.70;1.00;;;;;;4995508;28;20209;-75
2022/02/10 02:16:46;;;;;;;10.07;6.28;;;2.70;1.00;;;;;;4995137;28;20212;-75
2022/02/10 02:19:25;;;;;;;18.10;6.07;;;2.70;1.00;;;;;;4976296;28;20251;-76
2022/02/10 02:22:13;;;;;;;9.90;5.63;;;2.70;1.00;;;;;;4995381;28;20177;-77
2022/02/10 02:24:43;;;;;;;9.82;6.38;;;2.70;1.00;;;;;;4993976;28;20190;-77
2022/02/10 02:27:17;;;;;;;10.93;6.15;;;2.60;1.00;;;;;;5039376;28;20717;-77
2022/02/10 02:30:09;;;;;;;8.50;5.95;;;2.60;1.00;;;;;;5042212;28;20282;-78
2022/02/10 02:33:00;;;;;;;11.73;6.35;;;2.60;1.00;;;;;;5041759;28;20179;-77
2022/02/10 02:35:41;;;;;;;9.23;5.78;;;2.50;1.00;;;;;;5043089;28;20208;-77
2022/02/10 03:06:53;;;;;;;9.00;6.20;;;2.20;1.00;;;;;;5041246;28;20763;-77
2022/02/10 03:09:26;;;;;;;12.07;6.60;;;2.20;1.00;;;;;;5065521;28;20205;-77
2022/02/10 03:11:57;;;;;;;13.15;6.93;;;2.20;1.00;;;;;;5042796;28;20194;-77
2022/02/10 03:14:31;;;;;;;15.25;6.68;;;2.20;1.00;;;;;;5041826;28;20701;-77
2022/02/10 03:20:49;;;;;;;11.45;6.53;;;2.20;1.00;;;;;;5013383;28;20201;-77
2022/02/10 04:02:57;;;;;;;16.75;7.25;;;2.00;1.00;;;;;;5043408;28;20180;-77
2022/02/10 04:06:00;;;;;;;13.90;6.75;;;2.00;1.00;;;;;;5036834;28;20181;-77
2022/02/10 04:14:40;;;;;;;14.27;7.90;;;2.00;1.00;;;;;;5038972;28;20204;-77
2022/02/10 04:25:45;;;;;;;13.95;7.63;;;2.00;1.00;;;;;;5044993;28;20175;-77
2022/02/10 04:56:45;;;;;;;15.98;8.77;;;1.80;1.00;;;;;;5000325;28;20294;-75
2022/02/10 05:24:23;;;;;;;17.05;8.27;;;1.70;1.00;;;;;;4934525;29;20195;-77
2022/02/10 05:31:33;;;;;;;12.82;8.82;;;1.70;1.00;;;;;;4941110;28;20218;-77
2022/02/10 05:35:18;;;;;;;15.50;8.15;;;1.70;1.00;;;;;;4972563;28;20670;-77
2022/02/10 05:38:02;;;;;;;16.20;8.82;;;1.70;1.00;;;;;;4956374;28;20657;-77
2022/02/10 06:51:39;;;;;;;12.60;7.95;;;2.70;1.00;;;;;;5054294;28;20191;-75
2022/02/10 06:57:09;;;;;;;16.17;8.55;;;2.90;1.00;;;;;;5051249;28;20172;-75
2022/02/10 07:56:25;;;;;;;15.33;5.33;;;4.80;1.00;;;;;;4953846;29;20418;-75
2022/02/10 07:59:08;;;;;;;11.23;6.50;;;4.80;1.00;;;;;;4954275;29;20414;-75
2022/02/10 09:03:52;;;;;;;10.97;6.00;;;6.80;1.00;;;;;;5037011;28;20450;-77
2022/02/10 09:06:50;;;;;;;16.13;6.20;;;7.00;1.00;;;;;;5040098;28;20853;-78
2022/02/10 09:09:56;;;;;;;10.17;5.33;;;7.20;1.00;;;;;;5038395;28;20411;-74
2022/02/10 09:15:31;;;;;;;8.93;5.17;;;7.30;1.00;;;;;;5045241;28;20967;-74
2022/02/10 09:18:18;;;;;;;11.27;5.63;;;7.30;1.00;;;;;;5048507;28;20755;-74
2022/02/10 09:27:15;;;;;;;10.10;5.30;;;7.30;1.00;;;;;;5043829;28;20489;-74
2022/02/10 09:59:50;;;;;;;13.47;5.10;;;7.60;1.00;;;;;;4975084;28;20935;-77
2022/02/10 10:02:28;;;;;;;9.93;5.30;;;7.60;1.00;;;;;;4984808;28;20415;-77
2022/02/10 10:07:58;;;;;;;9.13;5.17;;;9.40;1.00;;;;;;4932540;29;20423;-77
2022/02/10 10:51:53;;;;;;;8.30;4.90;;;;;;;;;;5012239;28;20440;-74
2022/02/10 10:54:29;;;;;;;19.53;5.00;;;8.10;1.00;;;;;;5013265;28;20523;-74
2022/02/10 10:57:01;;;;;;;8.60;4.07;;;8.10;1.00;;;;;;5036943;28;20713;-77
2022/02/10 11:41:05;;;;;;;8.03;5.03;;;;;;;;;;5031861;28;20427;-77
2022/02/10 13:31:24;;;;;;;4.50;3.50;;;9.50;1.00;;;;;;4914808;29;20803;-80
2022/02/10 13:34:34;;;;;;;5.03;3.47;;;;;;;;;;4918365;29;20442;-80
2022/02/10 14:17:06;;;;;;;4.17;3.67;;;9.80;1.00;;;;;;4998424;28;20460;-75
2022/02/10 14:20:00;;;;;;;4.43;3.47;;;9.80;1.00;;;;;;5002775;28;20393;-78
2022/02/10 14:22:53;;;;;;;4.30;3.30;;;9.80;1.00;;;;;;5001701;28;20508;-77
2022/02/10 14:28:31;;;;;;;5.43;3.73;;;10.10;1.00;;;;;;4995619;28;20985;-77
2022/02/10 14:31:03;;;;;;;5.57;3.47;;;10.30;1.00;;;;;;5007661;28;20428;-80
2022/02/10 14:33:35;;;;;;;6.80;3.60;;;10.30;1.00;;;;;;4992114;28;20971;-78
2022/02/10 14:36:11;;;;;;;6.60;3.60;;;10.30;1.00;;;;;;5011154;28;20451;-78
2022/02/10 14:39:16;;;;;;;4.27;3.37;;;10.30;1.00;;;;;;5007119;28;21085;-78
2022/02/10 14:42:33;;;;;;;4.40;3.30;;;10.10;1.00;;;;;;5005643;28;20416;-77
2022/02/10 16:11:04;;;;;;;8.27;5.50;;;8.90;1.00;;;;;;5047737;28;20843;-73
2022/02/10 16:18:58;;;;;;;8.27;5.70;;;8.90;1.00;;;;;;5045547;28;20433;-77
2022/02/10 16:21:59;;;;;;;10.63;6.00;;;8.90;1.00;;;;;;5041058;28;20178;-77
2022/02/10 16:24:19;;;;;;;7.50;4.77;;;8.70;1.00;;;;;;5050361;28;20889;-77
2022/02/10 16:26:58;;;;;;;9.93;5.37;;;8.70;1.00;;;;;;5045898;28;20852;-77
2022/02/10 16:29:33;;;;;;;5.87;4.97;;;8.70;1.00;;;;;;5041401;28;20422;-77
2022/02/10 16:32:02;;;;;;;10.00;6.47;;;8.60;1.00;;;;;;5047813;28;20429;-78
2022/02/10 16:34:28;;;;;;;10.60;5.70;;;8.60;1.00;;;;;;5041912;28;20453;-77
2022/02/10 16:36:55;;;;;;;9.90;5.07;;;8.60;1.00;;;;;;5040605;28;20441;-77
2022/02/10 16:39:32;;;;;;;8.30;5.30;;;8.70;1.00;;;;;;5053641;28;20171;-77
2022/02/10 16:42:03;;;;;;;7.00;4.63;;;8.60;1.00;;;;;;5053714;28;20507;-74
2022/02/10 16:44:29;;;;;;;8.83;4.87;;;8.60;1.00;;;;;;5041890;28;20434;-76
2022/02/10 16:47:10;;;;;;;14.77;5.63;;;8.60;1.00;;;;;;5047897;28;20571;-76
2022/02/10 16:49:52;;;;;;;8.93;4.93;;;8.70;1.00;;;;;;5045030;28;20187;-77
2022/02/10 16:52:28;;;;;;;9.03;4.20;;;8.60;1.00;;;;;;5041285;28;20470;-77
2022/02/10 16:55:10;;;;;;;8.10;4.97;;;8.70;1.00;;;;;;5053660;28;20515;-77
2022/02/10 16:58:02;;;;;;;8.30;4.70;;;8.60;1.00;;;;;;5042195;28;20882;-77
2022/02/10 17:36:05;;;;;;;8.83;5.67;;;8.50;1.00;;;;;;5011616;28;20506;-77
2022/02/10 17:51:26;;;;;;;10.70;6.17;;;8.40;1.00;;;;;;4952840;29;20434;-74
2022/02/10 17:52:33;;;;;;;9.97;5.30;;;8.40;1.00;;;;;;4952501;29;20425;-74
2022/02/10 17:54:58;;;;;;;11.13;6.83;;;8.40;1.00;;;;;;4948216;28;20819;-75
2022/02/10 17:57:27;;;;;;;11.30;6.47;;;8.50;1.00;;;;;;4974660;28;20410;-75
2022/02/10 17:59:56;;;;;;;9.93;5.93;;;8.40;1.00;;;;;;4976386;28;20202;-75
2022/02/10 18:02:22;;;;;;;12.87;7.07;;;8.40;1.00;;;;;;4976103;28;20497;-75
2022/02/10 18:05:03;;;;;;;11.53;7.30;;;8.40;1.00;;;;;;4976210;28;20406;-75
2022/02/10 18:07:29;;;;;;;12.27;7.17;;;8.30;1.00;;;;;;4975486;28;20433;-75
2022/02/10 18:10:11;;;;;;;13.20;7.97;;;8.20;1.00;;;;;;4975898;28;20410;-75
2022/02/10 18:15:43;;;;;;;10.00;7.17;;;8.10;1.00;;;;;;4964804;28;20464;-76
2022/02/10 18:18:57;;;;;;;12.87;7.73;;;8.00;1.00;;;;;;4974596;28;20500;-75
2022/02/10 18:22:05;;;;;;;12.93;7.70;;;8.00;1.00;;;;;;5026310;28;20430;-75
2022/02/10 18:30:15;;;;;;;13.77;7.63;;;7.90;1.00;;;;;;5054846;28;20433;-74
2022/02/10 19:05:26;;;;;;;14.33;8.20;;;7.60;1.00;;;;;;4913607;29;20428;-76
2022/02/10 19:06:57;;;;;;;16.70;8.33;;;7.60;1.00;;;;;;4917386;29;20421;-75
2022/02/10 19:09:27;;;;;;;21.53;9.90;;;7.60;1.00;;;;;;4930214;29;20424;-75
2022/02/10 19:12:05;;;;;;;16.60;8.93;;;7.60;1.00;;;;;;4917427;29;20792;-76
2022/02/10 19:14:36;;;;;;;16.47;8.87;;;7.60;1.00;;;;;;4911768;29;20469;-76
2022/02/10 19:17:02;;;;;;;19.33;8.73;;;7.70;1.00;;;;;;4892988;29;21161;-76
2022/02/10 19:19:39;;;;;;;15.53;9.43;;;7.50;1.00;;;;;;4919062;29;20437;-76
2022/02/10 19:22:04;;;;;;;17.97;9.00;;;7.50;1.00;;;;;;4927485;29;20431;-75
2022/02/10 19:24:32;;;;;;;19.53;8.43;;;7.60;1.00;;;;;;4991534;28;20421;-75
2022/02/10 19:27:02;;;;;;;20.30;8.90;;;7.60;1.00;;;;;;4994116;28;20663;-76
2022/02/10 19:29:38;;;;;;;16.07;8.30;;;7.60;1.00;;;;;;4994095;28;20396;-75
2022/02/10 19:32:06;;;;;;;16.97;8.67;;;7.60;1.00;;;;;;4993915;28;20427;-75
2022/02/10 19:34:36;;;;;;;18.13;8.57;;;7.60;1.00;;;;;;4993921;28;20467;-75
2022/02/10 19:37:02;;;;;;;16.53;8.70;;;7.60;1.00;;;;;;5003789;28;20488;-75
2022/02/10 19:39:34;;;;;;;16.23;8.27;;;7.60;1.00;;;;;;5035569;28;20406;-76
2022/02/10 19:42:00;;;;;;;13.73;8.33;;;;;;;;;;5050449;28;20451;-75
2022/02/10 19:44:26;;;;;;;14.03;7.97;;;7.60;1.00;;;;;;5053742;28;20442;-75
2022/02/10 19:46:52;;;;;;;13.63;7.20;;;7.60;1.00;;;;;;5043478;28;20430;-74
2022/02/10 19:49:21;;;;;;;12.00;7.97;;;7.60;1.00;;;;;;5046870;28;20789;-74
2022/02/10 19:51:48;;;;;;;13.70;7.17;;;7.60;1.00;;;;;;5046646;28;20195;-75
2022/02/10 19:54:18;;;;;;;15.63;7.90;;;7.60;1.00;;;;;;5044738;28;20510;-75
2022/02/10 19:56:45;;;;;;;15.30;7.90;;;;;;;;;;5038887;28;20441;-75
2022/02/10 19:59:18;;;;;;;15.00;8.67;;;;;;;;;;5034496;28;20960;-75
2022/02/10 20:01:56;;;;;;;13.27;7.33;;;7.60;1.00;;;;;;5045113;28;20882;-76
2022/02/10 20:04:23;;;;;;;10.27;6.77;;;7.60;1.00;;;;;;5034624;28;20402;-76
2022/02/10 20:06:50;;;;;;;17.90;7.60;;;8.70;1.00;;;;;;5034807;28;20412;-76
2022/02/10 20:09:32;;;;;;;13.83;7.27;;;7.60;1.00;;;;;;5049915;28;20470;-78
2022/02/10 20:12:02;;;;;;;12.80;6.90;;;7.70;1.00;;;;;;5043784;28;20762;-77
2022/02/10 20:14:32;;;;;;;11.10;7.03;;;7.60;1.00;;;;;;5039396;28;20462;-77
2022/02/10 20:17:02;;;;;;;12.93;7.10;;;7.60;1.00;;;;;;5050439;28;20481;-76
2022/02/10 20:19:38;;;;;;;9.17;6.03;;;7.50;1.00;;;;;;5040738;28;20513;-77
2022/02/10 20:22:10;;;;;;;14.60;6.73;;;7.60;1.00;;;;;;5052987;28;20958;-77
2022/02/10 20:24:38;;;;;;;12.17;6.20;;;7.60;1.00;;;;;;5048482;28;20830;-77
2022/02/10 20:27:05;;;;;;;10.97;6.57;;;7.50;1.00;;;;;;5047093;28;20505;-77
2022/02/10 20:29:32;;;;;;;17.20;6.90;;;7.50;1.00;;;;;;5048126;28;20427;-78
2022/02/10 20:31:58;;;;;;;10.40;6.77;;;7.50;1.00;;;;;;5045574;28;20410;-74
2022/02/10 20:34:25;;;;;;;11.20;7.00;;;7.50;1.00;;;;;;5048627;28;20507;-73
2022/02/10 20:36:59;;;;;;;10.90;6.23;;;7.50;1.00;;;;;;5041349;28;20176;-74
2022/02/10 20:39:28;;;;;;;16.97;6.40;;;7.50;1.00;;;;;;5041608;28;20464;-74
2022/02/10 20:42:02;;;;;;;13.07;6.93;;;7.50;1.00;;;;;;5052668;28;20422;-74
2022/02/10 20:44:33;;;;;;;11.63;7.00;;;7.50;1.00;;;;;;5037458;28;20421;-73
2022/02/10 20:47:02;;;;;;;12.97;6.93;;;7.50;1.00;;;;;;5051003;28;20406;-77
2022/02/10 20:49:29;;;;;;;17.40;7.30;;;7.40;1.00;;;;;;5052810;28;21006;-77
2022/02/10 20:52:19;;;;;;;14.00;7.17;;;7.40;1.00;;;;;;5053361;28;20442;-77
2022/02/10 20:55:02;;;;;;;15.03;7.93;;;7.40;1.00;;;;;;5052912;28;20511;-77
2022/02/10 20:57:28;;;;;;;10.13;6.67;;;7.40;1.00;;;;;;5053539;28;20386;-77
2022/02/10 20:59:56;;;;;;;17.97;7.70;;;7.40;1.00;;;;;;5043242;28;20513;-77
2022/02/10 21:02:33;;;;;;;12.23;7.57;;;7.40;1.00;;;;;;5053870;28;20172;-74
2022/02/10 21:05:06;;;;;;;14.63;7.03;;;7.40;1.00;;;;;;5040214;28;20422;-74
2022/02/10 21:07:44;;;;;;;14.30;7.03;;;7.40;1.00;;;;;;5053381;28;20431;-74
2022/02/10 21:10:16;;;;;;;10.37;6.53;;;7.50;1.00;;;;;;5040605;28;20440;-74
2022/02/10 21:12:45;;;;;;;13.87;7.40;;;7.40;1.00;;;;;;5044519;28;20422;-74
2022/02/10 21:15:18;;;;;;;16.17;8.00;;;7.40;1.00;;;;;;5048961;28;20549;-74
2022/02/10 21:17:45;;;;;;;16.40;8.10;;;7.40;1.00;;;;;;5052322;28;20421;-74
2022/02/10 21:20:11;;;;;;;12.63;7.20;;;8.60;1.00;;;;;;5049860;28;20818;-74
2022/02/10 21:22:44;;;;;;;14.90;6.93;;;7.50;1.00;;;;;;5053535;28;20501;-74
2022/02/10 21:25:22;;;;;;;22.93;9.23;;;7.40;1.00;;;;;;5039391;28;20989;-74
2022/02/10 21:27:52;;;;;;;11.80;7.47;;;7.40;1.00;;;;;;5042385;28;20445;-74
2022/02/10 21:30:19;;;;;;;22.67;6.67;;;7.40;1.00;;;;;;5053971;28;20464;-74
2022/02/10 21:33:04;;;;;;;14.77;7.83;;;7.40;1.00;;;;;;5048647;28;20423;-77
2022/02/10 22:00:13;;;;;;;20.57;8.20;;;7.40;1.00;;;;;;4918642;29;20798;-77
2022/02/10 22:17:06;;;;;;;11.47;6.87;;;7.30;1.00;;;;;;4909041;29;20977;-77
2022/02/10 22:19:42;;;;;;;13.40;7.63;;;7.30;1.00;;;;;;4918414;29;20427;-77
2022/02/10 22:22:22;;;;;;;15.40;7.07;;;7.20;1.00;;;;;;4918273;29;20772;-77
2022/02/10 22:24:58;;;;;;;14.33;7.37;;;7.30;1.00;;;;;;4918277;29;20416;-77
2022/02/10 22:27:36;;;;;;;15.50;6.53;;;7.20;1.00;;;;;;4917950;29;20942;-77
2022/02/10 22:30:10;;;;;;;12.00;7.37;;;7.20;1.00;;;;;;5003968;28;20424;-78
2022/02/10 22:33:07;;;;;;;11.40;7.23;;;7.10;1.00;;;;;;5014891;28;20408;-74
2022/02/10 22:35:29;;;;;;;14.57;7.73;;;7.10;1.00;;;;;;5052669;28;20462;-74
2022/02/10 22:37:57;;;;;;;19.70;8.17;;;7.20;1.00;;;;;;5048397;28;20737;-74
2022/02/10 22:40:41;;;;;;;14.33;7.07;;;;;;;;;;5042621;28;20402;-74
2022/02/10 22:43:07;;;;;;;12.20;7.10;;;7.20;1.00;;;;;;5037417;28;20869;-74
2022/02/10 22:45:34;;;;;;;13.70;8.50;;;7.20;1.00;;;;;;5050693;28;20426;-74
2022/02/10 22:48:20;;;;;;;12.57;7.30;;;7.20;1.00;;;;;;5041726;28;20263;-77
2022/02/10 22:50:45;;;;;;;23.77;8.57;;;7.20;1.00;;;;;;5045648;28;20431;-77
2022/02/10 22:53:14;;;;;;;16.10;7.67;;;7.20;1.00;;;;;;5051652;28;20414;-77
2022/02/10 22:55:44;;;;;;;13.17;7.40;;;7.20;1.00;;;;;;5049639;28;20188;-77
2022/02/10 22:58:31;;;;;;;15.63;8.07;;;7.20;1.00;;;;;;5055860;28;20425;-77
2022/02/10 23:00:58;;;;;;;15.37;8.73;;;7.20;1.00;;;;;;5054846;28;20432;-77
2022/02/10 23:03:28;;;;;;;18.23;8.57;;;7.10;1.00;;;;;;5042619;28;20443;-77
2022/02/10 23:05:55;;;;;;;17.57;7.73;;;7.10;1.00;;;;;;5054200;28;20395;-77
2022/02/10 23:08:26;;;;;;;17.57;8.40;;;7.30;1.00;;;;;;5044908;28;20410;-77
2022/02/10 23:10:52;;;;;;;15.70;8.23;;;7.10;1.00;;;;;;5055498;28;20492;-77
2022/02/10 23:13:22;;;;;;;18.60;7.97;;;7.10;1.00;;;;;;5055715;28;20425;-77
2022/02/10 23:15:48;;;;;;;17.93;8.37;;;7.10;1.00;;;;;;5052069;28;20457;-77
2022/02/10 23:18:20;;;;;;;22.77;9.10;;;7.10;1.00;;;;;;5046428;28;20410;-74
2022/02/10 23:20:52;;;;;;;13.93;7.80;;;7.10;1.00;;;;;;5055482;28;20422;-74
2022/02/10 23:23:21;;;;;;;15.50;8.03;;;7.10;1.00;;;;;;5046964;28;20422;-74
2022/02/10 23:25:50;;;;;;;16.30;8.57;;;7.10;1.00;;;;;;5053984;28;20416;-74
2022/02/10 23:28:19;;;;;;;17.37;7.97;;;7.10;1.00;;;;;;5047956;28;20741;-74
2022/02/10 23:30:46;;;;;;;13.73;7.80;;;9.10;1.00;;;;;;5036037;28;20451;-74
2022/02/10 23:33:32;;;;;;;16.37;7.50;;;9.30;1.00;;;;;;5054862;28;20422;-77
2022/02/10 23:43:47;;;;;;;20.30;8.00;;;7.00;1.00;;;;;;5054983;28;20516;-77
2022/02/10 23:46:15;;;;;;;15.27;6.53;;;7.00;1.00;;;;;;5054383;28;20434;-77
2022/02/10 23:48:41;;;;;;;15.23;7.97;;;7.00;1.00;;;;;;5035257;28;20932;-74
2022/02/10 23:51:07;;;;;;;14.33;7.50;;;6.90;1.00;;;;;;5040164;28;20434;-74
2022/02/10 23:53:34;;;;;;;12.90;7.33;;;6.80;1.00;;;;;;5049272;28;20433;-74
2022/02/10 23:56:03;;;;;;;14.83;8.03;;;6.80;1.00;;;;;;5039204;28;20497;-74
